Time;durP1;ratioP1;P1;durP2;ratioP2;P2;SDS_P1;SDS_P2;PMS_P1;PMS_P2;Temp;Humidity;BMP_temperature;BMP_pressure;BME280_temperature;BME280_humidity;BME280_pressure;Samples;Min_cycle;Max_cycle;Signal;HPM_P1;HPM_P2
2022/01/17 00:01:34;;;;;;;34.83;21.45;;;7.50;99.90;;;;;;4897754;29;20043;-78
2022/01/17 00:04:00;;;;;;;31.30;19.58;;;7.50;99.90;;;;;;4897612;29;20104;-77
2022/01/17 00:06:25;;;;;;;42.05;20.17;;;7.50;99.90;;;;;;4908227;29;20103;-77
2022/01/17 00:08:51;;;;;;;33.85;19.77;;;7.50;99.90;;;;;;4895469;29;20148;-78
2022/01/17 00:11:18;;;;;;;31.80;19.52;;;7.50;99.90;;;;;;4898172;29;20055;-77
2022/01/17 00:13:45;;;;;;;31.83;18.45;;;7.50;99.90;;;;;;4880799;29;20034;-78
2022/01/17 00:16:18;;;;;;;30.42;17.30;;;7.50;99.90;;;;;;4880991;29;20438;-77
2022/01/17 00:21:12;;;;;;;24.20;16.50;;;7.50;99.90;;;;;;4897101;29;20410;-77
2022/01/17 00:23:38;;;;;;;33.80;18.38;;;7.50;99.90;;;;;;4902609;29;20059;-78
2022/01/17 00:26:06;;;;;;;44.30;18.70;;;7.50;99.90;;;;;;4916414;29;20678;-77
2022/01/17 00:28:33;;;;;;;32.85;18.90;;;7.50;99.90;;;;;;4915079;29;20032;-77
2022/01/17 00:31:01;;;;;;;33.38;19.77;;;7.50;99.90;;;;;;4916199;29;20040;-78
2022/01/17 00:33:27;;;;;;;30.38;19.35;;;7.50;99.90;;;;;;4911737;29;20033;-78
2022/01/17 00:35:52;;;;;;;34.83;21.67;;;7.50;99.90;;;;;;4913823;29;20500;-78
2022/01/17 00:38:18;;;;;;;43.80;24.25;;;7.50;99.90;;;;;;4928536;29;20058;-77
2022/01/17 00:40:44;;;;;;;44.90;25.20;;;7.40;99.90;;;;;;4913658;29;20036;-77
2022/01/17 00:43:11;;;;;;;46.05;27.00;;;7.40;99.90;;;;;;4930838;29;20032;-77
2022/01/17 00:45:39;;;;;;;40.90;25.27;;;7.40;99.90;;;;;;4934885;29;20512;-76
2022/01/17 00:48:05;;;;;;;38.22;22.70;;;7.40;99.90;;;;;;4920150;29;20043;-78
2022/01/17 00:50:31;;;;;;;30.10;20.58;;;7.40;99.90;;;;;;4915448;29;20469;-77
2022/01/17 00:53:03;;;;;;;36.78;19.75;;;7.40;99.90;;;;;;4915522;29;20455;-77
2022/01/17 00:55:30;;;;;;;30.23;20.23;;;7.40;99.90;;;;;;4915619;29;20111;-77
2022/01/17 00:57:55;;;;;;;31.63;18.90;;;7.40;99.90;;;;;;4916202;29;20040;-77
2022/01/17 01:00:21;;;;;;;30.55;20.30;;;7.30;99.90;;;;;;4910378;29;20071;-76
2022/01/17 01:02:47;;;;;;;27.17;18.45;;;7.20;99.90;;;;;;4898321;29;20036;-78
2022/01/17 01:05:13;;;;;;;33.53;19.90;;;7.00;99.90;;;;;;4896605;29;20025;-77
2022/01/17 01:07:40;;;;;;;30.45;18.73;;;6.90;99.90;;;;;;4895745;29;20037;-77
2022/01/17 01:10:10;;;;;;;25.60;17.45;;;6.90;99.90;;;;;;4896868;29;20028;-77
2022/01/17 01:12:40;;;;;;;28.63;17.40;;;6.90;99.90;;;;;;4896688;29;20675;-77
2022/01/17 01:15:12;;;;;;;34.17;19.30;;;6.90;99.90;;;;;;4896034;29;20029;-77
2022/01/17 01:19:05;;;;;;;27.98;16.85;;;6.80;99.90;;;;;;4879804;29;20036;-77
2022/01/17 01:28:30;;;;;;;32.58;18.30;;;6.80;99.90;;;;;;4926821;29;20512;-78
2022/01/17 01:30:58;;;;;;;25.67;18.02;;;6.90;99.90;;;;;;4909297;29;20397;-77
2022/01/17 01:33:38;;;;;;;29.45;17.88;;;7.00;99.90;;;;;;4879771;29;20718;-75
2022/01/17 01:36:09;;;;;;;28.65;18.73;;;7.10;99.90;;;;;;4896120;29;20020;-74
2022/01/17 01:38:40;;;;;;;27.15;18.67;;;7.20;99.90;;;;;;4894989;29;20132;-77
2022/01/17 01:41:06;;;;;;;27.63;19.23;;;7.30;99.90;;;;;;4925718;29;20525;-74
2022/01/17 01:43:32;;;;;;;31.42;19.67;;;7.40;99.90;;;;;;4912003;29;20064;-78
2022/01/17 01:46:00;;;;;;;29.35;18.35;;;7.50;99.90;;;;;;4896438;29;20040;-78
2022/01/17 01:48:28;;;;;;;31.95;19.50;;;7.60;99.90;;;;;;4899839;29;20367;-77
2022/01/17 01:50:53;;;;;;;26.73;18.85;;;7.70;99.90;;;;;;4883383;29;20442;-78
2022/01/17 01:53:19;;;;;;;32.50;19.08;;;7.70;99.90;;;;;;4899959;29;20036;-77
2022/01/17 01:55:45;;;;;;;30.75;20.33;;;7.80;99.90;;;;;;4899628;29;20168;-77
2022/01/17 01:58:11;;;;;;;29.42;19.25;;;7.80;99.90;;;;;;4899551;29;20039;-77
2022/01/17 02:00:37;;;;;;;31.80;19.75;;;7.80;99.90;;;;;;4919208;29;20039;-77
2022/01/17 02:03:06;;;;;;;37.10;22.38;;;7.80;99.90;;;;;;4934981;29;20483;-77
2022/01/17 02:05:32;;;;;;;41.08;22.45;;;7.80;99.90;;;;;;4934064;29;20028;-76
2022/01/17 02:07:58;;;;;;;38.08;23.23;;;7.80;99.90;;;;;;4918231;29;20397;-78
2022/01/17 02:10:23;;;;;;;41.88;24.77;;;7.80;99.90;;;;;;4901374;29;20037;-78
2022/01/17 02:12:49;;;;;;;41.55;24.92;;;7.80;99.90;;;;;;4929093;29;20379;-77
2022/01/17 02:15:17;;;;;;;35.90;24.60;;;7.80;99.90;;;;;;4920459;29;20510;-77
2022/01/17 02:17:46;;;;;;;40.45;26.40;;;7.80;99.90;;;;;;4936876;29;20020;-78
2022/01/17 02:20:21;;;;;;;37.85;25.98;;;7.80;99.90;;;;;;4937291;29;20499;-78
2022/01/17 02:22:48;;;;;;;41.25;22.30;;;7.80;99.90;;;;;;4935257;29;20030;-77
2022/01/17 02:25:14;;;;;;;37.03;22.30;;;7.70;99.90;;;;;;4934506;29;20024;-77
2022/01/17 02:27:40;;;;;;;30.60;20.25;;;7.70;99.90;;;;;;4922412;29;20035;-78
2022/01/17 02:30:06;;;;;;;36.63;23.10;;;7.60;99.90;;;;;;4928765;29;20405;-77
2022/01/17 02:32:33;;;;;;;33.65;22.20;;;7.60;99.90;;;;;;4900932;29;20024;-78
2022/01/17 02:35:20;;;;;;;38.85;27.25;;;7.60;99.90;;;;;;4918214;29;20473;-77
2022/01/17 02:37:46;;;;;;;44.28;28.67;;;7.60;99.90;;;;;;4918321;29;20040;-77
2022/01/17 02:40:17;;;;;;;48.40;28.13;;;7.50;99.90;;;;;;4917858;29;20437;-78
2022/01/17 02:42:45;;;;;;;52.08;28.67;;;7.50;99.90;;;;;;4919460;29;20024;-78
2022/01/17 02:45:29;;;;;;;49.38;28.98;;;7.50;99.90;;;;;;4911573;29;20036;-77
2022/01/17 02:47:55;;;;;;;52.15;31.20;;;7.50;99.90;;;;;;4936649;29;20032;-77
2022/01/17 02:50:21;;;;;;;49.90;29.83;;;7.50;99.90;;;;;;4936636;29;20035;-77
2022/01/17 02:52:47;;;;;;;42.33;29.52;;;7.50;99.90;;;;;;4936724;29;20115;-77
2022/01/17 02:55:12;;;;;;;47.58;30.98;;;7.50;99.90;;;;;;4919297;29;20027;-75
2022/01/17 02:57:38;;;;;;;51.40;30.42;;;7.50;99.90;;;;;;4936973;29;20612;-77
2022/01/17 03:00:09;;;;;;;41.25;26.92;;;7.50;99.90;;;;;;4926923;29;20048;-77
2022/01/17 03:02:35;;;;;;;47.37;27.13;;;7.40;99.90;;;;;;4922438;29;20107;-77
2022/01/17 03:05:01;;;;;;;46.85;28.15;;;7.40;99.90;;;;;;4924673;29;20887;-77
2022/01/17 03:07:27;;;;;;;42.75;26.63;;;7.40;99.90;;;;;;4925955;29;20031;-77
2022/01/17 03:10:02;;;;;;;47.75;29.48;;;7.40;99.90;;;;;;4927576;29;20032;-76
2022/01/17 03:12:30;;;;;;;48.90;29.02;;;7.40;99.90;;;;;;4936461;29;20489;-77
2022/01/17 03:14:56;;;;;;;39.95;24.70;;;7.30;99.90;;;;;;4936456;29;20102;-77
2022/01/17 03:17:22;;;;;;;42.85;26.52;;;7.20;99.90;;;;;;4918941;29;20024;-77
2022/01/17 03:19:48;;;;;;;42.50;24.58;;;7.20;99.90;;;;;;4935625;29;20071;-77
2022/01/17 03:22:13;;;;;;;44.38;25.80;;;7.10;99.90;;;;;;4935917;29;20024;-78
2022/01/17 03:24:39;;;;;;;43.97;27.58;;;7.10;99.90;;;;;;4930223;29;20020;-77
2022/01/17 03:27:05;;;;;;;51.45;27.23;;;7.00;99.90;;;;;;4920033;29;20040;-77
2022/01/17 03:29:30;;;;;;;52.97;33.85;;;6.90;99.90;;;;;;4930811;29;20492;-77
2022/01/17 03:31:56;;;;;;;55.78;34.25;;;6.80;99.90;;;;;;4935893;29;20028;-74
2022/01/17 03:34:22;;;;;;;61.42;35.90;;;6.90;99.90;;;;;;4921735;29;20024;-78
2022/01/17 03:36:48;;;;;;;61.67;37.38;;;6.80;99.90;;;;;;4917186;29;20095;-77
2022/01/17 03:39:14;;;;;;;60.88;38.60;;;6.80;99.90;;;;;;4916755;29;20040;-76
2022/01/17 03:41:40;;;;;;;63.10;39.13;;;6.80;99.90;;;;;;4916834;29;20438;-77
2022/01/17 03:44:07;;;;;;;76.25;45.00;;;6.80;99.90;;;;;;4916997;29;20079;-77
2022/01/17 03:46:33;;;;;;;62.03;36.60;;;6.80;99.90;;;;;;4924243;29;20028;-78
2022/01/17 03:48:59;;;;;;;60.15;36.03;;;6.80;99.90;;;;;;4931876;29;20099;-76
2022/01/17 03:51:25;;;;;;;59.97;34.53;;;6.70;99.90;;;;;;4932651;29;20108;-78
2022/01/17 03:53:51;;;;;;;47.22;29.30;;;6.60;99.90;;;;;;4918075;29;20036;-77
2022/01/17 03:56:18;;;;;;;41.17;26.25;;;6.50;99.90;;;;;;4918699;29;20034;-77
2022/01/17 03:58:45;;;;;;;41.42;24.50;;;6.40;99.90;;;;;;4916898;29;20029;-77
2022/01/17 04:01:11;;;;;;;35.17;21.10;;;6.30;99.90;;;;;;4924284;29;20032;-77
2022/01/17 04:03:37;;;;;;;35.63;20.08;;;6.20;99.90;;;;;;4935648;29;20373;-77
2022/01/17 04:06:02;;;;;;;30.15;19.15;;;6.10;99.90;;;;;;4931624;29;20043;-77
2022/01/17 04:08:28;;;;;;;34.53;21.05;;;5.90;99.90;;;;;;4906722;29;20107;-77
2022/01/17 04:10:54;;;;;;;25.77;17.70;;;5.80;99.90;;;;;;4906018;29;20024;-77
2022/01/17 04:13:20;;;;;;;28.35;18.05;;;5.80;99.90;;;;;;4935636;29;20024;-77
2022/01/17 04:15:46;;;;;;;32.63;19.13;;;5.80;99.90;;;;;;4933203;29;20402;-77
2022/01/17 04:18:12;;;;;;;31.02;18.95;;;5.80;99.90;;;;;;4899638;29;20433;-77
2022/01/17 04:20:39;;;;;;;33.33;20.90;;;5.80;99.90;;;;;;4916424;29;20036;-78
2022/01/17 04:23:09;;;;;;;34.50;20.10;;;5.80;99.90;;;;;;4899222;29;20049;-77
2022/01/17 04:25:36;;;;;;;37.92;20.30;;;5.90;99.90;;;;;;4916214;29;20394;-77
2022/01/17 04:28:04;;;;;;;35.75;22.58;;;5.90;99.90;;;;;;4917158;29;20507;-77
2022/01/17 04:30:30;;;;;;;32.72;21.33;;;5.90;99.90;;;;;;4930698;29;20528;-77
2022/01/17 04:32:57;;;;;;;37.90;22.23;;;6.10;99.90;;;;;;4920057;29;20028;-78
2022/01/17 04:35:24;;;;;;;35.85;22.98;;;6.20;99.90;;;;;;4916114;29;20051;-77
2022/01/17 04:37:59;;;;;;;40.28;22.88;;;6.30;99.90;;;;;;4916051;29;20048;-77
2022/01/17 04:40:26;;;;;;;38.30;24.52;;;6.40;99.90;;;;;;4926592;29;20693;-77
2022/01/17 04:42:55;;;;;;;32.17;21.00;;;6.40;99.90;;;;;;4935016;29;20103;-77
2022/01/17 04:45:21;;;;;;;37.88;21.95;;;6.40;99.90;;;;;;4934789;29;20473;-77
2022/01/17 04:47:49;;;;;;;35.83;21.25;;;6.40;99.90;;;;;;4934924;29;20031;-77
2022/01/17 04:50:18;;;;;;;32.83;20.95;;;6.40;99.90;;;;;;4928387;29;20035;-78
2022/01/17 04:52:44;;;;;;;39.33;22.90;;;6.50;99.90;;;;;;4924475;29;20159;-77
2022/01/17 04:55:12;;;;;;;34.75;23.05;;;6.50;99.90;;;;;;4933877;29;20517;-77
2022/01/17 04:57:38;;;;;;;37.17;22.30;;;6.50;99.90;;;;;;4929077;29;20465;-77
2022/01/17 05:00:06;;;;;;;33.45;22.23;;;6.40;99.90;;;;;;4922125;29;20040;-77
2022/01/17 05:02:31;;;;;;;39.85;22.67;;;6.30;99.90;;;;;;4928204;29;20388;-77
2022/01/17 05:04:58;;;;;;;33.63;20.20;;;6.30;99.90;;;;;;4934664;29;20032;-77
2022/01/17 05:07:24;;;;;;;31.15;20.63;;;6.30;99.90;;;;;;4934349;29;20023;-77
2022/01/17 05:09:50;;;;;;;33.92;21.55;;;6.30;99.90;;;;;;4920965;29;20036;-77
2022/01/17 05:12:16;;;;;;;35.70;21.08;;;6.30;99.90;;;;;;4905374;29;20028;-77
2022/01/17 05:14:47;;;;;;;37.63;20.23;;;6.20;99.90;;;;;;4916316;29;20055;-76
2022/01/17 05:19:54;;;;;;;32.25;21.35;;;6.20;99.90;;;;;;4934381;29;20405;-76
2022/01/17 05:22:20;;;;;;;35.25;22.15;;;6.20;99.90;;;;;;4918893;29;20203;-76
2022/01/17 05:24:47;;;;;;;30.17;19.33;;;6.20;99.90;;;;;;4921536;29;20024;-77
2022/01/17 05:27:13;;;;;;;37.08;21.45;;;6.20;99.90;;;;;;4938675;29;20034;-77
2022/01/17 05:29:39;;;;;;;28.95;20.65;;;6.10;99.90;;;;;;4938464;29;20031;-76
2022/01/17 05:32:06;;;;;;;33.15;20.98;;;6.10;99.90;;;;;;4938501;29;20043;-77
2022/01/17 05:34:40;;;;;;;37.90;19.67;;;6.10;99.90;;;;;;4938462;29;20040;-76
2022/01/17 05:37:10;;;;;;;35.63;22.13;;;6.10;99.90;;;;;;4908703;29;20024;-77
2022/01/17 05:39:37;;;;;;;47.35;26.08;;;6.20;99.90;;;;;;4919302;29;20051;-77
2022/01/17 05:42:04;;;;;;;49.95;29.90;;;6.20;99.90;;;;;;4919311;29;20035;-76
2022/01/17 05:44:30;;;;;;;47.13;29.95;;;6.20;99.90;;;;;;4922321;29;20039;-76
2022/01/17 05:46:56;;;;;;;42.83;24.00;;;6.20;99.90;;;;;;4920707;29;20502;-77
2022/01/17 05:49:22;;;;;;;34.42;22.65;;;6.20;99.90;;;;;;4903232;29;20059;-77
2022/01/17 05:51:48;;;;;;;43.00;24.05;;;6.20;99.90;;;;;;4918230;29;20086;-76
2022/01/17 05:54:14;;;;;;;38.38;23.90;;;6.20;99.90;;;;;;4920152;29;20028;-77
2022/01/17 05:56:39;;;;;;;41.30;26.92;;;6.10;99.90;;;;;;4903257;29;20410;-78
2022/01/17 05:59:05;;;;;;;37.97;24.83;;;6.10;99.90;;;;;;4919968;29;20047;-78
2022/01/17 06:01:31;;;;;;;40.53;23.25;;;6.10;99.90;;;;;;4919780;29;20028;-78
2022/01/17 06:03:56;;;;;;;36.17;20.52;;;6.00;99.90;;;;;;4919838;29;20028;-77
2022/01/17 06:06:22;;;;;;;36.03;20.10;;;6.10;99.90;;;;;;4919226;29;20040;-77
2022/01/17 06:08:48;;;;;;;31.73;17.85;;;6.00;99.90;;;;;;4919494;29;20135;-78
2022/01/17 06:11:13;;;;;;;32.10;19.70;;;6.00;99.90;;;;;;4919385;29;20132;-78
2022/01/17 06:13:39;;;;;;;29.85;18.85;;;5.90;99.90;;;;;;4918637;29;20099;-78
2022/01/17 06:16:05;;;;;;;30.70;20.13;;;6.00;99.90;;;;;;4918885;29;20055;-78
2022/01/17 06:18:31;;;;;;;35.33;21.17;;;5.90;99.90;;;;;;4918743;29;20073;-78
2022/01/17 06:20:57;;;;;;;33.75;22.15;;;5.90;99.90;;;;;;4917882;29;20446;-79
2022/01/17 06:23:24;;;;;;;28.42;17.45;;;5.90;99.90;;;;;;4919168;29;20047;-77
2022/01/17 06:25:50;;;;;;;35.97;22.23;;;5.90;99.90;;;;;;4918907;29;20483;-76
2022/01/17 06:28:16;;;;;;;37.75;22.50;;;6.00;99.90;;;;;;4918192;29;20051;-78
2022/01/17 06:30:41;;;;;;;28.92;19.73;;;6.00;99.90;;;;;;4917749;29;20028;-80
2022/01/17 06:33:07;;;;;;;31.83;19.45;;;6.00;99.90;;;;;;4901331;29;20028;-79
2022/01/17 06:35:33;;;;;;;36.20;20.70;;;6.00;99.90;;;;;;4918395;29;20036;-80
2022/01/17 06:37:59;;;;;;;34.25;20.83;;;6.00;99.90;;;;;;4901496;29;20059;-81
2022/01/17 06:40:24;;;;;;;28.63;18.67;;;6.00;99.90;;;;;;4900685;29;20064;-79
2022/01/17 06:42:50;;;;;;;29.58;18.17;;;6.00;99.90;;;;;;4917487;29;20075;-82
2022/01/17 06:45:18;;;;;;;29.13;18.58;;;6.00;99.90;;;;;;4917971;29;20024;-80
2022/01/17 06:47:44;;;;;;;31.85;18.40;;;6.00;99.90;;;;;;4917789;29;20521;-81
2022/01/17 06:50:11;;;;;;;31.95;18.20;;;6.10;99.90;;;;;;4917541;29;20028;-80
2022/01/17 06:52:37;;;;;;;34.00;18.83;;;6.00;99.90;;;;;;4917925;29;20024;-80
2022/01/17 06:55:03;;;;;;;25.85;17.40;;;6.00;99.90;;;;;;4917482;29;20032;-79
2022/01/17 06:57:28;;;;;;;21.88;15.68;;;6.00;99.90;;;;;;4917044;29;20104;-81
2022/01/17 06:59:55;;;;;;;31.58;18.17;;;6.00;99.90;;;;;;4917764;29;20056;-80
2022/01/17 07:02:21;;;;;;;31.45;16.80;;;6.00;99.90;;;;;;4918008;29;20541;-80
2022/01/17 07:04:47;;;;;;;29.88;17.80;;;6.00;99.90;;;;;;4918018;29;20027;-80
2022/01/17 07:07:12;;;;;;;30.00;16.38;;;6.10;99.90;;;;;;4918440;29;20525;-80
2022/01/17 07:09:38;;;;;;;26.98;16.95;;;6.10;99.90;;;;;;4917942;29;20028;-80
2022/01/17 07:12:05;;;;;;;28.70;16.73;;;6.30;99.90;;;;;;4900870;29;20028;-80
2022/01/17 07:14:31;;;;;;;26.50;17.15;;;6.50;99.90;;;;;;4917461;29;20028;-81
2022/01/17 07:16:57;;;;;;;25.85;17.33;;;6.70;99.90;;;;;;4916953;29;20027;-80
2022/01/17 07:19:23;;;;;;;27.05;15.45;;;6.90;99.90;;;;;;4899306;29;20036;-80
2022/01/17 07:21:50;;;;;;;23.23;14.52;;;7.20;99.90;;;;;;4900300;29;20494;-79
2022/01/17 07:24:17;;;;;;;22.67;14.00;;;7.60;99.90;;;;;;4917533;29;20048;-80
2022/01/17 07:26:42;;;;;;;27.48;13.07;;;8.00;99.90;;;;;;4917478;29;20035;-80
2022/01/17 07:29:09;;;;;;;25.67;14.15;;;8.40;99.90;;;;;;4917294;29;20036;-80
2022/01/17 07:31:36;;;;;;;19.67;12.68;;;8.80;99.90;;;;;;4916960;29;20020;-80
2022/01/17 07:34:01;;;;;;;20.63;12.95;;;9.10;99.90;;;;;;4917241;29;20047;-81
2022/01/17 07:36:28;;;;;;;23.27;14.05;;;9.40;99.90;;;;;;4900149;29;20028;-80
2022/01/17 07:38:54;;;;;;;39.55;18.13;;;9.70;99.90;;;;;;4916777;29;20505;-80
2022/01/17 07:41:20;;;;;;;28.52;14.50;;;10.10;99.90;;;;;;4916736;29;20036;-80
2022/01/17 07:43:47;;;;;;;29.80;13.68;;;10.50;99.90;;;;;;4916659;29;20028;-80
2022/01/17 07:46:23;;;;;;;20.63;13.90;;;10.90;99.90;;;;;;4915871;29;20036;-79
2022/01/17 07:51:34;;;;;;;19.30;13.57;;;12.00;99.90;;;;;;4916936;29;20479;-81
2022/01/17 07:54:00;;;;;;;22.63;15.57;;;12.50;99.90;;;;;;4917241;29;20024;-81
2022/01/17 07:56:26;;;;;;;19.95;13.45;;;12.70;99.90;;;;;;4916903;29;20024;-81
2022/01/17 07:58:52;;;;;;;33.22;17.00;;;12.90;99.90;;;;;;4899886;29;20028;-81
2022/01/17 08:01:19;;;;;;;25.65;15.45;;;12.90;99.90;;;;;;4916127;29;20038;-81
2022/01/17 08:03:45;;;;;;;26.55;14.45;;;13.20;99.90;;;;;;4916367;29;20016;-81
2022/01/17 08:06:11;;;;;;;23.67;15.35;;;13.70;99.90;;;;;;4915621;29;20054;-80
2022/01/17 08:08:37;;;;;;;25.17;15.82;;;14.20;99.90;;;;;;4915396;29;20020;-81
2022/01/17 08:11:03;;;;;;;29.15;15.90;;;14.30;99.90;;;;;;4915762;29;20028;-83
2022/01/17 08:13:28;;;;;;;25.80;16.25;;;14.60;99.90;;;;;;4916898;29;20076;-84
2022/01/17 08:15:55;;;;;;;30.25;17.67;;;15.00;99.90;;;;;;4915527;29;20035;-82
2022/01/17 08:18:21;;;;;;;29.63;17.40;;;15.30;99.90;;;;;;4916795;29;20028;-81
2022/01/17 08:20:47;;;;;;;28.73;17.85;;;15.60;99.90;;;;;;4915869;29;20083;-81
2022/01/17 08:23:13;;;;;;;28.20;14.88;;;16.00;99.90;;;;;;4915907;29;20016;-83
2022/01/17 08:25:39;;;;;;;29.98;16.27;;;16.20;99.90;;;;;;4899522;29;20032;-84
2022/01/17 08:28:05;;;;;;;33.60;18.83;;;16.30;99.90;;;;;;4916630;29;20067;-90
2022/01/17 08:30:32;;;;;;;25.35;15.60;;;16.70;99.90;;;;;;4917721;29;20450;-89
2022/01/17 08:33:01;;;;;;;30.02;15.43;;;17.10;99.90;;;;;;4917607;29;20028;-89
2022/01/17 08:35:27;;;;;;;25.80;15.10;;;17.50;99.90;;;;;;4918377;29;20035;-89
2022/01/17 08:37:53;;;;;;;28.45;14.90;;;18.00;99.90;;;;;;4917492;29;20044;-88
2022/01/17 08:40:19;;;;;;;25.08;14.20;;;18.60;99.90;;;;;;4917759;29;20044;-89
2022/01/17 08:42:46;;;;;;;26.52;15.77;;;19.30;99.90;;;;;;4917640;29;20024;-89
2022/01/17 08:45:14;;;;;;;26.40;17.52;;;19.90;99.90;;;;;;4917710;29;20024;-89
2022/01/17 08:47:43;;;;;;;44.10;18.85;;;20.30;99.90;;;;;;4917451;29;20056;-88
2022/01/17 08:50:08;;;;;;;31.83;19.27;;;20.60;99.90;;;;;;4917247;29;20028;-90
2022/01/17 08:52:34;;;;;;;31.45;19.88;;;20.50;99.90;;;;;;4916867;29;20043;-88
2022/01/17 08:55:00;;;;;;;31.10;20.65;;;20.40;99.90;;;;;;4917206;29;20042;-88
2022/01/17 08:57:26;;;;;;;36.13;21.02;;;20.60;99.90;;;;;;4916430;29;20023;-87
2022/01/17 08:59:52;;;;;;;40.60;20.65;;;20.90;99.90;;;;;;4902687;29;20394;-91
2022/01/17 09:02:18;;;;;;;42.80;20.25;;;21.40;99.90;;;;;;4903771;29;20032;-88
2022/01/17 09:04:44;;;;;;;30.90;19.02;;;21.60;99.90;;;;;;4908411;29;20525;-90
2022/01/17 09:07:12;;;;;;;37.28;19.75;;;21.90;99.90;;;;;;4921693;29;20470;-91
2022/01/17 09:09:42;;;;;;;46.85;19.52;;;22.00;99.90;;;;;;4922075;29;20032;-91
2022/01/17 09:12:09;;;;;;;36.40;19.08;;;21.90;99.90;;;;;;4911596;29;20028;-89
2022/01/17 09:14:36;;;;;;;38.60;18.88;;;22.10;99.90;;;;;;4922438;29;20036;-87
2022/01/17 09:17:03;;;;;;;40.72;18.40;;;21.90;99.90;;;;;;4922799;29;20147;-93
2022/01/17 09:19:29;;;;;;;38.13;17.10;;;22.10;99.90;;;;;;4922458;29;20131;-89
2022/01/17 09:21:55;;;;;;;29.83;18.05;;;22.00;99.90;;;;;;4916402;29;20067;-87
2022/01/17 09:24:21;;;;;;;27.75;17.17;;;21.60;99.90;;;;;;4904256;29;20056;-84
2022/01/17 09:26:47;;;;;;;34.20;17.83;;;21.00;99.90;;;;;;4920689;29;20039;-84
2022/01/17 09:29:13;;;;;;;26.92;17.00;;;20.30;99.90;;;;;;4900965;29;20076;-89
2022/01/17 09:31:39;;;;;;;31.55;18.83;;;19.90;99.90;;;;;;4916278;29;20032;-86
2022/01/17 09:34:05;;;;;;;27.92;18.27;;;19.70;99.90;;;;;;4916115;29;20031;-89
2022/01/17 09:36:34;;;;;;;48.47;17.98;;;19.40;99.90;;;;;;4917038;29;20020;-85
2022/01/17 09:39:00;;;;;;;25.10;17.85;;;19.30;99.90;;;;;;4916726;29;20044;-86
2022/01/17 09:41:26;;;;;;;27.90;18.13;;;19.20;99.90;;;;;;4902254;29;20088;-84
2022/01/17 09:43:53;;;;;;;31.65;19.17;;;18.80;99.90;;;;;;4920015;29;20055;-88
2022/01/17 09:46:23;;;;;;;32.97;19.30;;;18.20;99.90;;;;;;4920033;29;20032;-89
2022/01/17 09:48:51;;;;;;;26.40;19.55;;;17.50;99.90;;;;;;4903898;29;20033;-93
2022/01/17 09:51:37;;;;;;;31.27;19.73;;;16.90;99.90;;;;;;4902076;29;20025;-89
2022/01/17 09:54:04;;;;;;;32.22;21.35;;;16.40;99.90;;;;;;4902234;29;20466;-91
2022/01/17 09:56:30;;;;;;;38.70;22.23;;;16.00;99.90;;;;;;4902073;29;20049;-92
2022/01/17 09:58:57;;;;;;;32.85;22.30;;;15.70;99.90;;;;;;4914227;29;20024;-93
2022/01/17 10:01:24;;;;;;;41.50;21.60;;;15.50;99.90;;;;;;4919045;29;20721;-85
2022/01/17 10:03:52;;;;;;;35.90;20.38;;;15.40;99.90;;;;;;4919312;29;20492;-91
2022/01/17 10:06:19;;;;;;;41.85;21.98;;;15.30;99.90;;;;;;4921458;29;20103;-89
2022/01/17 10:08:44;;;;;;;35.85;22.42;;;15.20;99.90;;;;;;4912578;29;20107;-88
2022/01/17 10:11:16;;;;;;;45.28;23.17;;;15.00;99.90;;;;;;4920500;29;20123;-86
2022/01/17 10:13:45;;;;;;;32.00;22.15;;;14.80;99.90;;;;;;4895624;29;20462;-88
2022/01/17 10:16:19;;;;;;;35.63;21.35;;;14.60;99.90;;;;;;4904769;29;20040;-86
2022/01/17 10:19:02;;;;;;;38.30;21.40;;;14.40;99.90;;;;;;4897419;29;20474;-85
2022/01/17 10:21:38;;;;;;;38.80;21.38;;;14.20;99.90;;;;;;4914556;29;20036;-84
2022/01/17 10:35:14;;;;;;;30.63;21.27;;;14.20;99.90;;;;;;4917203;29;20087;-84
2022/01/17 10:37:41;;;;;;;34.45;21.77;;;14.50;99.90;;;;;;4917871;29;20044;-84
2022/01/17 10:40:15;;;;;;;42.42;22.08;;;14.80;99.90;;;;;;4917570;29;20515;-83
2022/01/17 10:42:48;;;;;;;31.08;21.40;;;15.20;99.90;;;;;;4917574;29;20130;-82
2022/01/17 10:45:22;;;;;;;44.08;24.63;;;15.50;99.90;;;;;;4899414;29;20485;-82
2022/01/17 10:47:54;;;;;;;34.70;22.30;;;15.80;99.90;;;;;;4900686;29;20070;-82
2022/01/17 10:50:23;;;;;;;35.72;23.30;;;15.80;99.90;;;;;;4917506;29;20127;-82
2022/01/17 10:52:52;;;;;;;39.53;22.65;;;15.80;99.90;;;;;;4917207;29;20500;-79
2022/01/17 10:55:43;;;;;;;30.92;20.42;;;15.60;99.90;;;;;;4899487;29;20508;-83
2022/01/17 10:58:12;;;;;;;36.70;22.58;;;15.40;99.90;;;;;;4910388;29;20047;-81
2022/01/17 11:00:42;;;;;;;34.08;21.00;;;15.30;99.90;;;;;;4915818;29;20040;-78
2022/01/17 11:03:13;;;;;;;30.85;20.67;;;15.30;99.90;;;;;;4916925;29;20074;-81
2022/01/17 11:05:42;;;;;;;36.28;23.30;;;15.50;99.90;;;;;;4899125;29;20032;-81
2022/01/17 11:08:08;;;;;;;32.75;23.52;;;15.90;99.90;;;;;;4916315;29;20036;-81
2022/01/17 11:10:38;;;;;;;40.10;26.85;;;16.20;99.90;;;;;;4917410;29;20032;-83
2022/01/17 11:13:12;;;;;;;39.67;25.85;;;16.50;99.90;;;;;;4915588;29;20032;-83
2022/01/17 11:15:39;;;;;;;42.95;27.45;;;16.80;99.90;;;;;;4917757;29;20083;-84
2022/01/17 11:18:19;;;;;;;46.42;28.95;;;17.20;99.90;;;;;;4900713;29;20515;-89
2022/01/17 11:20:48;;;;;;;48.45;30.75;;;17.60;99.90;;;;;;4916153;29;20099;-85
2022/01/17 11:23:14;;;;;;;56.33;36.42;;;17.90;99.90;;;;;;4900307;29;20086;-76
2022/01/17 11:25:43;;;;;;;58.13;40.05;;;18.00;99.90;;;;;;4916852;29;20029;-88
2022/01/17 11:28:10;;;;;;;54.92;39.60;;;17.90;99.90;;;;;;4918174;29;20127;-85
2022/01/17 11:30:38;;;;;;;65.90;41.70;;;17.50;99.90;;;;;;4917422;29;20429;-87
2022/01/17 11:33:08;;;;;;;61.67;40.92;;;17.10;99.90;;;;;;4917731;29;20031;-82
2022/01/17 11:35:34;;;;;;;54.53;39.35;;;16.60;99.90;;;;;;4917410;29;20031;-85
2022/01/17 11:38:02;;;;;;;56.75;38.25;;;16.30;99.90;;;;;;4917809;29;20044;-87
2022/01/17 11:40:34;;;;;;;64.63;39.53;;;15.90;99.90;;;;;;4917241;29;20252;-87
2022/01/17 11:43:16;;;;;;;61.05;41.03;;;15.40;99.90;;;;;;4917667;29;20088;-92
2022/01/17 11:45:43;;;;;;;63.28;42.03;;;15.00;99.90;;;;;;4917240;29;20032;-85
2022/01/17 11:48:23;;;;;;;66.18;42.80;;;14.70;99.90;;;;;;4900628;29;20166;-85
2022/01/17 11:50:52;;;;;;;129.20;81.63;;;14.30;99.90;;;;;;4917449;29;20028;-85
2022/01/17 11:53:17;;;;;;;143.55;83.75;;;14.00;99.90;;;;;;4900029;29;20029;-83
2022/01/17 11:55:46;;;;;;;85.93;55.17;;;13.80;99.90;;;;;;4917759;29;20028;-86
2022/01/17 11:58:26;;;;;;;80.15;50.13;;;13.50;99.90;;;;;;4918073;29;20036;-90
2022/01/17 12:00:58;;;;;;;86.15;51.28;;;13.30;99.90;;;;;;4918001;29;20042;-81
2022/01/17 12:03:47;;;;;;;80.03;51.38;;;13.20;99.90;;;;;;4917936;29;20029;-88
2022/01/17 12:06:20;;;;;;;77.07;48.85;;;13.20;99.90;;;;;;4917305;29;20145;-87
2022/01/17 12:08:47;;;;;;;77.68;49.83;;;13.30;99.90;;;;;;4917743;29;20112;-88
2022/01/17 12:11:31;;;;;;;73.90;48.03;;;13.60;99.90;;;;;;4917208;29;20035;-86
2022/01/17 12:14:18;;;;;;;73.88;48.28;;;13.80;99.90;;;;;;4917122;29;20032;-86
2022/01/17 12:16:43;;;;;;;82.93;49.47;;;13.90;99.90;;;;;;4916911;29;20047;-87
2022/01/17 12:19:10;;;;;;;71.03;44.75;;;14.00;99.90;;;;;;4917920;29;20477;-85
2022/01/17 12:21:41;;;;;;;73.57;45.90;;;13.90;99.90;;;;;;4917637;29;20024;-89
2022/01/17 12:24:25;;;;;;;65.30;46.22;;;13.90;99.90;;;;;;4916952;29;20060;-85
2022/01/17 12:27:02;;;;;;;65.03;44.40;;;13.90;99.90;;;;;;4915614;29;20076;-85
2022/01/17 12:29:40;;;;;;;72.38;47.75;;;13.90;99.90;;;;;;4914023;29;20434;-85
2022/01/17 12:32:25;;;;;;;76.75;48.03;;;13.80;99.90;;;;;;4911604;29;20028;-87
2022/01/17 12:34:58;;;;;;;65.57;47.03;;;13.70;99.90;;;;;;4917169;29;20044;-87
2022/01/17 12:37:35;;;;;;;75.47;48.05;;;13.60;99.90;;;;;;4913989;29;20114;-86
2022/01/17 12:40:31;;;;;;;70.45;46.83;;;13.50;99.90;;;;;;4910399;29;20056;-86
2022/01/17 12:43:00;;;;;;;64.40;40.95;;;13.40;99.90;;;;;;4913734;29;20064;-85
2022/01/17 12:45:27;;;;;;;60.95;41.42;;;13.30;99.90;;;;;;4917323;29;20044;-82
2022/01/17 12:47:54;;;;;;;67.20;45.28;;;13.20;99.90;;;;;;4918593;29;20031;-87
2022/01/17 12:50:22;;;;;;;63.65;43.90;;;13.10;99.90;;;;;;4895827;29;20024;-83
2022/01/17 12:52:50;;;;;;;71.13;44.72;;;13.10;99.90;;;;;;4912796;29;20044;-86
2022/01/17 12:55:17;;;;;;;69.47;44.42;;;13.00;99.90;;;;;;4918016;29;20024;-88
2022/01/17 12:57:44;;;;;;;70.57;41.25;;;13.00;99.90;;;;;;4917130;29;20028;-86
2022/01/17 13:00:20;;;;;;;69.25;41.22;;;13.00;99.90;;;;;;4915945;29;20028;-85
2022/01/17 13:02:52;;;;;;;65.65;40.05;;;12.90;99.90;;;;;;4916461;29;20016;-87
2022/01/17 13:05:31;;;;;;;55.45;33.47;;;12.90;99.90;;;;;;4914883;29;20059;-86